Pahrump, Nevada Weather observations

Data are for observation ending at time listed.
 Day   Time    Ave.   Ave.  Ave.  Vector   Max.   Stn.    Total    Solar   Ave.  
  of    of     Air    Rel.  Wind   Wind    Wind   Baro.  Precip.   Rad.    Soil  
Year   Day     Temp.  Hum.  Speed  Dir.    Gust   Pres.                    Temp. 
2020   (PST)    F      %     mph   deg.    mph     mb.     in.     W/m2     F   
------------------------------------------------------------------------------
 268    0:00   70.8    22    0.1   312      0.1   922.3    0.00       0    86.8
 268    0:10   68.8    23    0.1   281      0.1   922.3    0.00       0    86.6
 268    0:20   68.8    24    0.0   296      0.1   922.2    0.00       0    86.4
 268    0:30   69.2    23    0.0     3      0.1   922.1    0.00       0    86.2
 268    0:40   69.7    22    0.0   176      0.1   921.9    0.00       0    86.0
 268    0:50   68.5    26    0.1   279      0.1   921.9    0.00       0    85.8
 268    1:00   67.0    26    0.1   274      0.1   921.9    0.00       0    85.6
 268    1:10   66.2    27    0.1   246      0.1   921.9    0.00       0    85.4
 268    1:20   67.0    25    0.0   293      0.1   921.8    0.00       0    85.2
 268    1:30   67.6    24    0.0     0      0.0   921.6    0.00       0    85.1
 268    1:40   67.7    26    0.0     0      0.0   921.5    0.00       0    84.9
 268    1:50   67.5    27    0.0     0      0.0   921.3    0.00       0    84.7
 268    2:00   67.5    26    0.0     0      0.0   921.3    0.00       0    84.6
 268    2:10   67.8    26    0.0   227      0.1   921.3    0.00       0    84.4
 268    2:20   67.2    26    0.1   246      0.1   921.3    0.00       0    84.3
 268    2:30   67.1    26    0.0   275      0.1   921.3    0.00       0    84.1
 268    2:40   68.1    24    0.0   186      0.1   921.3    0.00       0    83.9
 268    2:50   68.8    23    0.0   180      0.1   921.3    0.00       0    83.8
 268    3:00   68.2    23    0.0   167      0.1   921.3    0.00       0    83.6
 268    3:10   68.3    23    0.0     0      0.0   921.4    0.00       0    83.5
 268    3:20   68.6    23    0.0     0      0.0   921.3    0.00       0    83.4
 268    3:30   69.6    22    0.0     0      0.0   921.3    0.00       0    83.2
 268    3:40   69.7    22    0.0   172      0.1   921.3    0.00       0    83.1
 268    3:50   69.7    22    0.0   174      0.1   921.3    0.00       0    83.0
 268    4:00   67.6    26    0.1   302      0.1   921.4    0.00       0    82.8
 268    4:10   65.4    25    0.0   337      0.1   921.3    0.00       0    82.7
 268    4:20   65.8    25    0.0   353      0.1   921.2    0.00       0    82.6
 268    4:30   65.2    25    0.0   354      0.1   921.2    0.00       0    82.5
 268    4:40   65.3    26    0.0   340      0.1   921.1    0.00       0    82.4
 268    4:50   65.6    26    0.0   328      0.1   921.1    0.00       0    82.2
 268    5:00   65.4    27    0.0   334      0.1   921.1    0.00       0    82.1
 268    5:10   65.2    27    0.1   304      0.1   921.1    0.00       0    82.0
 268    5:20   64.5    29    0.1   309      0.1   921.1    0.00       0    81.9
 268    5:30   65.0    26    0.0   354      0.1   921.1    0.00       3    81.7
 268    5:40   64.7    26    0.0   355      0.1   921.2    0.00       4    81.6
 268    5:50   64.5    27    0.0     0      0.0   921.2    0.00      10    81.5
 268    6:00   64.4    28    0.0   284      0.1   921.1    0.00      20    81.4
 268    6:10   64.9    29    0.0     0      0.0   921.1    0.00      39    81.2
 268    6:20   65.5    32    0.0   302      0.1   921.1    0.00      68    81.1
 268    6:30   66.3    31    0.1   246      0.1   921.2    0.00     103    81.0
 268    6:40   68.9    27    0.0   246      0.1   921.3    0.00     139    80.9
 268    6:50   70.8    26    0.1   279      0.1   921.4    0.00     176    80.9
 268    7:00   71.9    22    0.0   355      0.1   921.6    0.00     207    80.8
 268    7:10   72.1    22    0.0   317      0.1   921.8    0.00     239    80.8
 268    7:20   72.7    22    0.0   318      0.1   922.1    0.00     279    80.8
 268    7:30   71.5    22    0.1   306      0.1   922.4    0.00     314    80.8
 268    7:40   71.9    22    0.1   320      0.1   922.5    0.00     346    80.8
 268    7:50   74.2    20    1.2     9      2.9   922.7    0.00     379    80.9
 268    8:00   75.8    19    1.4     3      3.2   923.0    0.00     362    80.9
 268    8:10   77.6    18    1.0     4      3.6   923.2    0.00     417    81.0
 268    8:20   78.8    17    0.0   345      0.1   923.4    0.00     453    81.1
 268    8:30   79.7    17    0.0   340      0.1   923.6    0.00     490    81.2
 268    8:40   80.5    17    0.1   324      0.1   923.9    0.00     561    81.3
 268    8:50   82.3    16    1.0   336      3.6   924.0    0.00     591    81.4
 268    9:00   82.7    16    0.1   330      0.1   924.2    0.00     622    81.5
 268    9:10   83.3    16    0.1   299      0.1   924.4    0.00     650    81.6
 268    9:20   84.4    15    0.2   313      2.0   924.5    0.00     677    81.7
 268    9:30   86.0    14    0.4   317      1.9   924.6    0.00     695    81.9
 268    9:40   87.3    14    1.6   116      3.9   924.7    0.00     477    82.0
 268    9:50   88.6    13    1.2   116      4.2   924.8    0.00     227    82.1
 268   10:00   89.1    13    1.2   162      5.4   924.9    0.00       0    82.2
 268   10:10   89.5    13    1.3   204      4.7   924.9    0.00       0    82.3
 268   10:20   89.3    13    0.1   248      0.1   925.0    0.00      15    82.4
 268   10:30   90.8    13    0.1   230      0.1   924.9    0.00     167    82.6
 268   10:40   92.1    12    0.1   255      0.1   924.9    0.00     788    82.7
 268   10:50   91.1    12    1.3   254      6.2   924.8    0.00     736    82.9
 268   11:00   92.3    12    2.2   259      4.4   924.7    0.00     856    83.0
 268   11:10   92.6    12    0.2   264      5.0   924.7    0.00     842    83.2
 268   11:20   93.4    12    1.7   246      4.3   924.7    0.00     873    83.5
 268   11:30   93.5    11    3.6   180      7.9   924.7    0.00     878    83.8
 268   11:40   93.2    12    2.8   268      5.3   924.7    0.00     882    84.3
 268   11:50   94.0    11    2.8   172      6.9   924.7    0.00     883    84.9
 268   12:00   94.6    11    3.4   176      6.9   924.7    0.00     874    85.7
 268   12:10   94.3    11    3.9   263      7.8   924.6    0.00      29    86.6
 268   12:20   94.2    11    3.4   283      8.5   924.5    0.00     320    87.5
 268   12:30   94.6    11    3.4   256      8.6   924.3    0.00       0    88.4
 268   12:40   95.5    11    2.4   182      7.3   924.2    0.00      48    89.3
 268   12:50   96.6    10    2.8   209      8.3   924.1    0.00     842    90.2
 268   13:00   96.0    10    4.0   199      8.3   924.0    0.00     770    91.0
 268   13:10   96.7    10    0.9   191     10.1   923.8    0.00     689    91.7
 268   13:20   97.1    10    1.1   216      5.6   923.7    0.00     475    92.5
 268   13:30   96.5    10    0.4   163      8.5   923.6    0.00     786    93.2
 268   13:40   96.3    10    2.4   253      8.8   923.5    0.00     764    93.8
 268   13:50   95.7    11    4.3   248     12.3   923.3    0.00     747    94.4
 268   14:00   96.3    10    3.1   220     10.9   923.1    0.00     726    94.8
 268   14:10   96.1    10    3.5   224      7.1   923.1    0.00     702    95.2
 268   14:20   96.2    11    2.4   226      9.5   922.9    0.00     673    95.6
 268   14:30   95.8    11    4.8   248     10.6   922.7    0.00     644    95.9
 268   14:40   95.9    11    3.7   243     14.3   922.6    0.00     618    96.2
 268   14:50   95.4    11    5.1   259     10.7   922.5    0.00     590    96.4
 268   15:00   95.6    11    4.9   260     10.5   922.3    0.00     560    96.5
 268   15:10   96.2    11    3.4   245     10.0   922.1    0.00     527    96.6
 268   15:20   95.5    11    5.1   260     12.8   922.0    0.00     437    96.6
 268   15:30   95.5    11    4.2   250      8.9   921.9    0.00     202    96.6
 268   15:40   95.7    11    4.1   236      9.4   921.8    0.00     125    96.5
 268   15:50   95.3    11    4.3   239     12.4   921.7    0.00      77    96.4
 268   16:00   95.3    11    3.6   249      9.2   921.6    0.00      77    96.3
 268   16:10   94.8    11    4.8   259     12.3   921.5    0.00      83    96.2
 268   16:20   94.2    11    4.7   248     10.9   921.4    0.00     208    96.1
 268   16:30   94.6    11    3.0   256      6.5   921.2    0.00     236    95.9
 268   16:40   94.5    11    2.8   256      6.9   921.1    0.00      70    95.7
 268   16:50   94.2    11    2.5   248      6.6   920.9    0.00     158    95.5
 268   17:00   93.8    11    2.4   243      6.4   920.8    0.00     123    95.3
 268   17:10   93.4    11    1.6   244      4.0   920.7    0.00      89    95.1
 268   17:20   92.5    12    1.2   247      2.9   920.6    0.00      30    94.9
 268   17:30   91.0    12    1.5   219      3.5   920.4    0.00       3    94.6
 268   17:40   90.3    12    1.1   217      3.0   920.3    0.00       3    94.4
 268   17:50   89.6    12    1.6   214      2.8   920.1    0.00       3    94.1
 268   18:00   89.2    12    0.9   185      2.4   919.9    0.00       1    93.9
 268   18:10   88.5    12    2.5   129      4.5   919.8    0.00       0    93.6
 268   18:20   87.8    12    3.3   127      4.6   919.7    0.00       0    93.3
 268   18:30   87.7    12    4.8   136      8.1   919.7    0.00       0    93.0
 268   18:40   87.6    12    4.9   133      7.5   919.7    0.00       0    92.8
 268   18:50   87.0    12    4.9   140      6.7   919.8    0.00       0    92.5
 268   19:00   86.8    12    5.3   136      8.0   919.9    0.00       0    92.2
 268   19:10   86.0    12    5.0   142      6.3   919.9    0.00       0    92.0
 268   19:20   85.6    12    5.7   142      7.4   919.9    0.00       0    91.7
 268   19:30   85.5    12    5.2   137      6.7   919.9    0.00       0    91.5
 268   19:40   85.7    12    5.8   138      8.3   919.9    0.00       0    91.2
 268   19:50   85.5    12    5.5   139      7.5   919.9    0.00       0    91.0
 268   20:00   85.8    12    5.8   137      8.1   920.0    0.00       0    90.8
 268   20:10   85.2    12    4.7   139      7.7   920.0    0.00       0    90.6
 268   20:20   84.7    13    0.0   146      0.1   920.0    0.00       0    90.4
 268   20:30   84.7    13    0.0   145      0.1   920.0    0.00       0    90.2
 268   20:40   84.4    13    0.0   141      0.2   919.9    0.00       0    90.0
 268   20:50   83.2    13    0.0   133      0.1   920.0    0.00       0    89.7
 268   21:00   81.8    14    0.0   133      0.1   919.9    0.00       0    89.6
 268   21:10   81.2    14    0.0   130      0.1   919.8    0.00       0    89.4
 268   21:20   81.3    14    0.0   141      0.1   919.7    0.00       0    89.2
 268   21:30   81.1    14    0.0   146      0.1   919.7    0.00       0    89.0
 268   21:40   80.8    14    0.0   142      0.1   919.7    0.00       0    88.9
 268   21:50   80.6    13    0.0   138      0.1   919.6    0.00       0    88.7
 268   22:00   80.3    13    0.0   116      0.1   919.6    0.00       0    88.5
 268   22:10   80.5    13    0.0   116      0.1   919.5    0.00       0    88.3
 268   22:20   80.2    13    0.0   119      0.1   919.5    0.00       0    88.1
 268   22:30   79.5    14    0.0   241      0.1   919.6    0.00       0    88.0
 268   22:40   78.2    15    0.1   194      0.1   919.6    0.00       0    87.8
 268   22:50   76.4    17    0.1   224      0.1   919.5    0.00       0    87.7
 268   23:00   75.0    18    0.1   241      0.1   919.4    0.00       0    87.5
 268   23:10   74.0    18    0.1   252      0.1   919.2    0.00       0    87.3

Return to Pahrump, Nevada graphs page.


Western Regional Climate Center,wrcc@dri.edu